Time;durP1;ratioP1;P1;durP2;ratioP2;P2;SDS_P1;SDS_P2;PMS_P1;PMS_P2;Temp;Humidity;BMP_temperature;BMP_pressure;BME280_temperature;BME280_humidity;BME280_pressure;Samples;Min_cycle;Max_cycle;Signal;HPM_P1;HPM_P2
2023/12/26 00:01:27;;;;;;;3.70;1.00;;;6.90;99.90;;;;;;4997329;28;20903;-65
2023/12/26 00:03:53;;;;;;;2.40;0.80;;;6.40;99.90;;;;;;4999232;28;20180;-65
2023/12/26 00:06:21;;;;;;;3.63;1.00;;;7.50;99.90;;;;;;4997738;28;20442;-69
2023/12/26 00:08:47;;;;;;;3.87;1.20;;;6.50;99.90;;;;;;4991276;28;20191;-69
2023/12/26 00:11:15;;;;;;;1.33;0.80;;;6.90;99.90;;;;;;4989024;28;20846;-68
2023/12/26 00:13:40;;;;;;;3.30;1.10;;;6.40;99.90;;;;;;4983196;28;20497;-69
2023/12/26 00:16:06;;;;;;;4.63;1.50;;;7.30;99.90;;;;;;4994776;28;20462;-68
2023/12/26 00:18:32;;;;;;;3.40;1.60;;;6.40;99.90;;;;;;4997957;28;20223;-69
2023/12/26 00:20:57;;;;;;;3.83;0.80;;;6.90;99.90;;;;;;4992957;28;20441;-69
2023/12/26 00:23:23;;;;;;;1.93;0.80;;;7.00;99.90;;;;;;4999849;28;20676;-68
2023/12/26 00:25:48;;;;;;;1.30;0.70;;;7.10;99.90;;;;;;4996459;28;20180;-65
2023/12/26 00:28:16;;;;;;;1.30;0.60;;;6.30;99.90;;;;;;5002186;28;20259;-65
2023/12/26 00:30:41;;;;;;;2.80;1.17;;;7.10;99.90;;;;;;5005542;28;20182;-65
2023/12/26 00:33:07;;;;;;;2.17;0.70;;;6.40;99.90;;;;;;5001762;28;20458;-65
2023/12/26 00:35:32;;;;;;;2.37;0.90;;;6.90;99.90;;;;;;5000392;28;20184;-64
2023/12/26 00:37:58;;;;;;;7.07;1.27;;;7.40;99.90;;;;;;5002469;28;20176;-65
2023/12/26 00:40:24;;;;;;;1.63;0.83;;;7.00;99.90;;;;;;4995451;28;20255;-65
2023/12/26 00:42:50;;;;;;;1.80;0.80;;;7.30;99.90;;;;;;5002661;28;20437;-65
2023/12/26 00:45:15;;;;;;;1.80;0.70;;;7.10;99.90;;;;;;4999564;28;20206;-65
2023/12/26 00:47:41;;;;;;;2.43;1.03;;;6.20;99.90;;;;;;5004304;28;20270;-65
2023/12/26 00:50:11;;;;;;;5.63;1.93;;;6.20;99.90;;;;;;4994753;28;20192;-69
2023/12/26 00:52:38;;;;;;;5.43;1.03;;;6.20;99.90;;;;;;5001733;28;20770;-69
2023/12/26 00:55:05;;;;;;;1.53;0.83;;;6.20;99.90;;;;;;4997751;28;20484;-65
2023/12/26 00:57:33;;;;;;;1.30;0.60;;;6.30;99.90;;;;;;5001467;28;20419;-65
2023/12/26 00:59:58;;;;;;;1.83;1.10;;;6.30;99.90;;;;;;5005864;28;20414;-65
2023/12/26 01:02:25;;;;;;;2.80;0.90;;;6.80;99.90;;;;;;5007561;28;20410;-65
2023/12/26 01:04:51;;;;;;;2.33;1.47;;;6.90;99.90;;;;;;4994771;28;20270;-65
2023/12/26 01:07:16;;;;;;;1.67;0.93;;;6.20;99.90;;;;;;4996716;28;21023;-65
2023/12/26 01:09:42;;;;;;;3.63;0.80;;;6.10;99.90;;;;;;4990326;28;20215;-65
2023/12/26 01:12:08;;;;;;;3.80;1.33;;;6.60;99.90;;;;;;5004488;28;20250;-69
2023/12/26 01:14:33;;;;;;;2.07;1.03;;;6.50;99.90;;;;;;4995189;28;20538;-69
2023/12/26 01:16:59;;;;;;;4.37;1.00;;;7.20;99.90;;;;;;5003486;28;20227;-69
2023/12/26 01:19:25;;;;;;;2.80;1.20;;;6.60;99.90;;;;;;4999801;28;20536;-69
2023/12/26 01:21:50;;;;;;;4.13;1.37;;;6.90;99.90;;;;;;4999957;28;20231;-69
2023/12/26 01:24:16;;;;;;;3.67;1.03;;;6.20;99.90;;;;;;5007148;28;20755;-69
2023/12/26 01:26:42;;;;;;;2.40;0.97;;;6.60;99.90;;;;;;5001518;28;20194;-69
2023/12/26 01:29:08;;;;;;;2.80;1.20;;;6.20;99.90;;;;;;4993310;28;20646;-69
2023/12/26 01:31:37;;;;;;;10.20;1.60;;;6.20;99.90;;;;;;5002063;28;20418;-69
2023/12/26 01:34:03;;;;;;;6.70;1.27;;;6.20;99.90;;;;;;4982232;28;20208;-69
2023/12/26 01:36:28;;;;;;;2.10;1.40;;;6.10;99.90;;;;;;5006034;28;20454;-66
2023/12/26 01:38:54;;;;;;;3.00;1.27;;;6.60;99.90;;;;;;4994098;28;20501;-65
2023/12/26 01:41:20;;;;;;;9.97;1.73;;;6.20;99.90;;;;;;4994409;28;20654;-69
2023/12/26 01:43:45;;;;;;;4.60;1.67;;;6.20;99.90;;;;;;4995308;28;20188;-69
2023/12/26 01:46:12;;;;;;;5.00;1.17;;;6.20;99.90;;;;;;4993652;28;20729;-69
2023/12/26 01:48:39;;;;;;;3.90;1.83;;;7.20;99.90;;;;;;5001540;28;20194;-69
2023/12/26 01:51:08;;;;;;;2.43;0.90;;;7.10;99.90;;;;;;5003331;28;20449;-65
2023/12/26 01:53:38;;;;;;;2.80;1.17;;;7.20;99.90;;;;;;4993408;28;20462;-65
2023/12/26 01:56:09;;;;;;;3.57;1.20;;;7.30;99.90;;;;;;5002750;28;20417;-69
2023/12/26 01:58:38;;;;;;;2.10;0.93;;;6.40;99.90;;;;;;5000007;28;20414;-69
2023/12/26 02:01:04;;;;;;;2.37;1.23;;;7.10;99.90;;;;;;5000047;28;20410;-65
2023/12/26 02:03:30;;;;;;;1.80;0.90;;;6.40;99.90;;;;;;5004861;28;20498;-65
2023/12/26 02:05:57;;;;;;;2.30;1.30;;;7.00;99.90;;;;;;5000785;28;20774;-69
2023/12/26 02:08:23;;;;;;;2.17;1.10;;;7.50;99.90;;;;;;4983077;28;20424;-69
2023/12/26 02:10:49;;;;;;;1.60;1.00;;;7.40;99.90;;;;;;4969163;28;20900;-69
2023/12/26 02:13:14;;;;;;;3.27;0.60;;;7.80;99.90;;;;;;4997809;28;20465;-69
2023/12/26 02:15:40;;;;;;;1.87;0.87;;;7.10;99.90;;;;;;4991414;28;20183;-69
2023/12/26 02:18:06;;;;;;;2.27;0.87;;;7.30;99.90;;;;;;4996260;28;20701;-69
2023/12/26 02:20:31;;;;;;;3.67;1.10;;;6.60;99.90;;;;;;4997701;28;20183;-69
2023/12/26 02:22:57;;;;;;;2.37;0.90;;;6.60;99.90;;;;;;5002649;28;20214;-69
2023/12/26 02:25:23;;;;;;;3.00;1.00;;;7.30;99.90;;;;;;4987376;28;20179;-69
2023/12/26 02:27:49;;;;;;;6.50;1.07;;;7.00;99.90;;;;;;4985604;28;20175;-69
2023/12/26 02:30:15;;;;;;;2.27;0.77;;;6.60;99.90;;;;;;4995403;28;21735;-69
2023/12/26 02:32:42;;;;;;;1.50;0.80;;;6.50;99.90;;;;;;4994226;28;20621;-69
2023/12/26 02:35:09;;;;;;;4.40;0.90;;;6.50;99.90;;;;;;4992983;28;20481;-65
2023/12/26 02:37:36;;;;;;;6.57;1.70;;;6.90;99.90;;;;;;5003644;28;20469;-65
2023/12/26 02:40:03;;;;;;;2.43;1.10;;;6.60;99.90;;;;;;4993075;28;20425;-69
2023/12/26 02:42:31;;;;;;;3.13;1.30;;;6.60;99.90;;;;;;4995975;28;20442;-69
2023/12/26 02:44:57;;;;;;;1.30;0.60;;;6.60;99.90;;;;;;4985552;28;20419;-65
2023/12/26 02:47:23;;;;;;;3.07;1.30;;;7.30;99.90;;;;;;4997569;28;20744;-65
2023/12/26 02:49:49;;;;;;;2.13;0.87;;;7.00;99.90;;;;;;4995197;28;20431;-65
2023/12/26 02:52:15;;;;;;;4.00;1.23;;;7.50;99.90;;;;;;5003442;28;20176;-65
2023/12/26 02:54:40;;;;;;;4.33;0.77;;;7.30;99.90;;;;;;4991934;28;20199;-65
2023/12/26 02:57:06;;;;;;;4.03;1.20;;;6.90;99.90;;;;;;4995780;28;20195;-65
2023/12/26 02:59:31;;;;;;;3.57;0.80;;;7.50;99.90;;;;;;4996682;28;20542;-65
2023/12/26 03:02:00;;;;;;;3.17;1.47;;;6.70;99.90;;;;;;5001252;28;20190;-69
2023/12/26 03:04:26;;;;;;;4.30;0.90;;;7.40;99.90;;;;;;4989885;28;20184;-69
2023/12/26 03:06:52;;;;;;;1.43;0.70;;;7.40;99.90;;;;;;5000916;28;20501;-69
2023/12/26 03:09:17;;;;;;;1.57;0.70;;;6.70;99.90;;;;;;4995362;28;20938;-69
2023/12/26 03:11:43;;;;;;;3.63;0.97;;;7.40;99.90;;;;;;5000520;28;20418;-69
2023/12/26 03:14:08;;;;;;;4.07;1.10;;;6.70;99.90;;;;;;4998852;28;20206;-69
2023/12/26 03:16:34;;;;;;;1.70;0.90;;;6.90;99.90;;;;;;5002627;28;20187;-69
2023/12/26 03:18:59;;;;;;;2.13;0.80;;;7.20;99.90;;;;;;4999582;28;20180;-69
2023/12/26 03:21:25;;;;;;;10.90;0.90;;;6.60;99.90;;;;;;4997447;28;20206;-69
2023/12/26 03:23:51;;;;;;;1.87;0.80;;;6.90;99.90;;;;;;4996819;28;20294;-69
2023/12/26 03:26:17;;;;;;;2.50;0.77;;;7.20;99.90;;;;;;5003091;28;20184;-69
2023/12/26 03:28:42;;;;;;;1.50;0.67;;;7.10;99.90;;;;;;5005746;28;21731;-69
2023/12/26 03:31:07;;;;;;;3.70;1.40;;;7.40;99.90;;;;;;4996616;28;20202;-69
2023/12/26 03:33:35;;;;;;;2.20;0.77;;;7.50;99.90;;;;;;4982463;28;20210;-69
2023/12/26 03:36:01;;;;;;;3.20;1.10;;;7.40;99.90;;;;;;5001935;28;20209;-69
2023/12/26 03:38:27;;;;;;;4.10;0.90;;;7.20;99.90;;;;;;4995188;28;20769;-69
2023/12/26 03:40:52;;;;;;;1.30;0.80;;;7.30;99.90;;;;;;4992164;28;20422;-65
2023/12/26 03:43:18;;;;;;;3.20;1.00;;;7.80;99.90;;;;;;5000667;28;20172;-65
2023/12/26 03:45:45;;;;;;;3.33;1.10;;;7.30;99.90;;;;;;5000118;28;20245;-65
2023/12/26 03:48:11;;;;;;;6.43;1.00;;;7.50;99.90;;;;;;5004713;28;20180;-65
2023/12/26 03:50:37;;;;;;;1.90;0.80;;;6.90;99.90;;;;;;4998778;28;20858;-69
2023/12/26 03:53:03;;;;;;;1.93;1.00;;;6.50;99.90;;;;;;4996921;28;20214;-69
2023/12/26 03:55:28;;;;;;;3.20;1.07;;;6.60;99.90;;;;;;5001917;28;20430;-65
2023/12/26 03:57:53;;;;;;;6.77;0.90;;;7.10;99.90;;;;;;5001801;28;20667;-65
2023/12/26 04:00:19;;;;;;;2.27;0.77;;;6.70;99.90;;;;;;5003291;28;20257;-65
2023/12/26 04:02:44;;;;;;;2.00;0.83;;;6.60;99.90;;;;;;4984149;28;20187;-65
2023/12/26 04:05:10;;;;;;;4.20;1.13;;;6.60;99.90;;;;;;4998494;28;20662;-69
2023/12/26 04:07:36;;;;;;;1.97;0.90;;;6.60;99.90;;;;;;5010439;28;20569;-69
2023/12/26 04:10:02;;;;;;;2.17;0.93;;;6.60;99.90;;;;;;4992765;28;20237;-65
2023/12/26 04:12:28;;;;;;;4.03;1.10;;;6.60;99.90;;;;;;5009222;28;20179;-65
2023/12/26 04:14:54;;;;;;;2.07;0.93;;;7.00;99.90;;;;;;5007933;28;20207;-69
2023/12/26 04:17:21;;;;;;;8.90;1.50;;;6.60;99.90;;;;;;5001728;28;21262;-69
2023/12/26 04:19:47;;;;;;;5.23;1.50;;;6.60;99.90;;;;;;5004805;28;20172;-69
2023/12/26 04:22:12;;;;;;;6.73;1.60;;;7.10;99.90;;;;;;4997912;28;20739;-69
2023/12/26 04:24:37;;;;;;;2.80;1.20;;;6.70;99.90;;;;;;4995685;28;20434;-69
2023/12/26 04:27:03;;;;;;;3.40;1.00;;;7.50;99.90;;;;;;5000681;28;20183;-69
2023/12/26 04:29:30;;;;;;;3.10;0.90;;;6.70;99.90;;;;;;5000529;28;20229;-69
2023/12/26 04:31:56;;;;;;;5.97;0.90;;;7.20;99.90;;;;;;5003170;28;20206;-69
2023/12/26 04:34:21;;;;;;;5.57;1.30;;;7.40;99.90;;;;;;4998489;28;20497;-69
2023/12/26 04:36:47;;;;;;;2.40;1.30;;;7.20;99.90;;;;;;5007245;28;20597;-69
2023/12/26 04:39:12;;;;;;;2.87;1.10;;;6.70;99.90;;;;;;4997547;28;20188;-69
2023/12/26 04:41:38;;;;;;;1.80;1.00;;;6.70;99.90;;;;;;4998443;28;20168;-69
2023/12/26 04:44:03;;;;;;;1.67;0.97;;;7.20;99.90;;;;;;5007013;28;20259;-70
2023/12/26 04:46:29;;;;;;;3.93;1.10;;;6.70;99.90;;;;;;5009295;28;20188;-69
2023/12/26 04:48:54;;;;;;;5.13;1.10;;;7.70;99.90;;;;;;5008359;28;20191;-69
2023/12/26 04:51:20;;;;;;;3.63;1.43;;;7.20;99.90;;;;;;5003362;28;20205;-70
2023/12/26 04:53:46;;;;;;;3.00;1.47;;;7.50;99.90;;;;;;4994534;28;20216;-69
2023/12/26 04:56:21;;;;;;;3.50;1.13;;;7.30;99.90;;;;;;5007271;28;20536;-69
2023/12/26 04:58:48;;;;;;;2.50;0.77;;;6.80;99.90;;;;;;5006620;28;20439;-69
2023/12/26 05:01:15;;;;;;;2.23;0.90;;;7.40;99.90;;;;;;4996841;28;20437;-69
2023/12/26 05:03:40;;;;;;;5.13;1.10;;;7.60;99.90;;;;;;5007741;28;20455;-69
2023/12/26 05:06:06;;;;;;;2.70;1.27;;;7.40;99.90;;;;;;5004920;28;21239;-66
2023/12/26 05:08:32;;;;;;;4.43;1.60;;;6.80;99.90;;;;;;4994491;28;20222;-66
2023/12/26 05:10:57;;;;;;;1.77;0.90;;;7.00;99.90;;;;;;4994781;28;20624;-69
2023/12/26 05:13:23;;;;;;;3.57;1.40;;;7.50;99.90;;;;;;5000076;28;20199;-69
2023/12/26 05:15:51;;;;;;;6.03;1.83;;;7.60;99.90;;;;;;4998236;28;20639;-69
2023/12/26 05:18:17;;;;;;;1.90;1.20;;;7.60;99.90;;;;;;5004358;28;21050;-69
2023/12/26 05:20:43;;;;;;;3.50;1.30;;;7.50;99.90;;;;;;4994106;28;20419;-65
2023/12/26 05:23:08;;;;;;;1.77;0.87;;;7.50;99.90;;;;;;4988374;28;20274;-66
2023/12/26 05:25:34;;;;;;;14.63;1.93;;;7.70;99.90;;;;;;4994869;28;20175;-66
2023/12/26 05:27:59;;;;;;;2.60;1.07;;;6.90;99.90;;;;;;5003355;28;20202;-66
2023/12/26 05:30:25;;;;;;;6.20;1.30;;;7.50;99.90;;;;;;4992026;28;20191;-66
2023/12/26 05:32:50;;;;;;;4.33;0.90;;;7.50;99.90;;;;;;4992673;28;20525;-66
2023/12/26 05:35:16;;;;;;;2.63;0.80;;;6.80;99.90;;;;;;4995876;28;20239;-65
2023/12/26 05:37:41;;;;;;;6.60;1.10;;;7.30;99.90;;;;;;5003501;28;20171;-65
2023/12/26 05:40:07;;;;;;;4.00;0.93;;;7.30;99.90;;;;;;4997927;28;20183;-69
2023/12/26 05:42:33;;;;;;;1.57;0.83;;;6.90;99.90;;;;;;5001002;28;20190;-69
2023/12/26 05:44:58;;;;;;;1.80;0.80;;;7.00;99.90;;;;;;4996333;28;20186;-70
2023/12/26 05:47:24;;;;;;;1.53;0.80;;;7.40;99.90;;;;;;5004214;28;20179;-69
2023/12/26 05:49:49;;;;;;;1.50;1.00;;;6.90;99.90;;;;;;4995802;28;20216;-66
2023/12/26 05:52:15;;;;;;;2.00;1.13;;;7.50;99.90;;;;;;4997898;28;20183;-66
2023/12/26 05:54:41;;;;;;;3.47;1.47;;;7.30;99.90;;;;;;4987015;28;20212;-66
2023/12/26 05:57:06;;;;;;;6.13;0.80;;;7.00;99.90;;;;;;4990161;28;20180;-69
2023/12/26 05:59:32;;;;;;;3.53;1.43;;;6.80;99.90;;;;;;4993858;28;20620;-69
2023/12/26 06:01:57;;;;;;;3.77;1.70;;;6.80;99.90;;;;;;5003759;28;20183;-66
2023/12/26 06:04:23;;;;;;;5.23;2.10;;;7.00;99.90;;;;;;4997402;28;20179;-65
2023/12/26 06:06:48;;;;;;;4.20;0.87;;;6.80;99.90;;;;;;5000524;28;20266;-65
2023/12/26 06:09:14;;;;;;;10.10;1.60;;;7.10;99.90;;;;;;5002802;28;20186;-66
2023/12/26 06:11:40;;;;;;;2.70;1.17;;;7.80;99.90;;;;;;4994050;28;20271;-69
2023/12/26 06:14:07;;;;;;;3.60;1.30;;;7.30;99.90;;;;;;4993446;28;20610;-69
2023/12/26 06:16:33;;;;;;;8.73;1.47;;;7.70;99.90;;;;;;4994046;28;20711;-69
2023/12/26 06:18:58;;;;;;;2.03;0.80;;;7.50;99.90;;;;;;4991113;28;20498;-69
2023/12/26 06:21:24;;;;;;;1.73;1.00;;;6.80;99.90;;;;;;4993549;28;20183;-69
2023/12/26 06:23:49;;;;;;;4.37;0.90;;;6.90;99.90;;;;;;4999013;28;20258;-69
2023/12/26 06:26:17;;;;;;;3.63;1.03;;;7.40;99.90;;;;;;4997396;28;20187;-69
2023/12/26 06:28:42;;;;;;;4.50;0.97;;;7.20;99.90;;;;;;4997126;28;20176;-70
2023/12/26 06:31:13;;;;;;;3.87;1.00;;;6.80;99.90;;;;;;5006173;28;20731;-69
2023/12/26 06:33:39;;;;;;;6.40;1.40;;;7.50;99.90;;;;;;4982274;28;20203;-69
2023/12/26 06:36:05;;;;;;;4.23;1.47;;;7.10;99.90;;;;;;5003660;28;20422;-70
2023/12/26 06:38:30;;;;;;;8.00;1.33;;;6.70;99.90;;;;;;4995690;28;20172;-70
2023/12/26 06:40:56;;;;;;;2.33;1.00;;;7.40;99.90;;;;;;4996655;28;20434;-69
2023/12/26 06:43:21;;;;;;;6.53;1.40;;;7.70;99.90;;;;;;5001746;28;20183;-69
2023/12/26 06:45:47;;;;;;;3.70;1.43;;;7.20;99.90;;;;;;5001479;28;20643;-70
2023/12/26 06:48:12;;;;;;;4.43;1.40;;;7.10;99.90;;;;;;5006438;28;20191;-69
2023/12/26 06:50:38;;;;;;;2.70;0.97;;;6.70;99.90;;;;;;4999931;28;20264;-69
2023/12/26 06:53:03;;;;;;;2.60;1.07;;;7.10;99.90;;;;;;4998150;28;20191;-70
2023/12/26 06:55:29;;;;;;;2.87;1.27;;;7.50;99.90;;;;;;5002729;28;20267;-66
2023/12/26 06:57:55;;;;;;;1.70;0.90;;;7.20;99.90;;;;;;4999019;28;20180;-66
2023/12/26 07:00:21;;;;;;;3.70;1.77;;;6.70;99.90;;;;;;4998024;28;20438;-70
2023/12/26 07:02:47;;;;;;;5.93;1.67;;;6.70;99.90;;;;;;4996099;28;20782;-70
2023/12/26 07:05:13;;;;;;;5.00;2.13;;;6.70;99.90;;;;;;4994295;28;20222;-70
2023/12/26 07:07:38;;;;;;;5.53;1.73;;;7.40;99.90;;;;;;5004576;28;20640;-70
2023/12/26 07:10:04;;;;;;;8.90;2.50;;;6.70;99.90;;;;;;4988062;28;20670;-69
2023/12/26 07:12:29;;;;;;;2.50;1.20;;;6.70;99.90;;;;;;4993041;28;20219;-70
2023/12/26 07:14:55;;;;;;;6.67;1.27;;;6.70;99.90;;;;;;4991559;28;20220;-70
2023/12/26 07:17:20;;;;;;;5.77;1.43;;;7.50;99.90;;;;;;5002444;28;20310;-70
2023/12/26 07:19:46;;;;;;;4.50;1.33;;;7.40;99.90;;;;;;4992586;28;20238;-70
2023/12/26 07:22:11;;;;;;;5.47;2.60;;;6.70;99.90;;;;;;5001164;28;20204;-70
2023/12/26 07:24:37;;;;;;;3.87;1.17;;;7.40;99.90;;;;;;4999552;28;20195;-70
2023/12/26 07:27:02;;;;;;;5.73;1.67;;;6.70;99.90;;;;;;4998553;28;20187;-70
2023/12/26 07:29:28;;;;;;;3.33;1.30;;;6.70;99.90;;;;;;5000694;28;20201;-70
2023/12/26 07:31:54;;;;;;;5.07;1.67;;;7.40;99.90;;;;;;4998675;28;20219;-70
2023/12/26 07:34:20;;;;;;;4.30;2.07;;;7.40;99.90;;;;;;4991156;28;20206;-70
2023/12/26 07:36:45;;;;;;;2.50;1.40;;;7.40;99.90;;;;;;4995969;28;20199;-70
2023/12/26 07:39:11;;;;;;;1.80;1.00;;;6.70;99.90;;;;;;4995685;28;20199;-70
2023/12/26 07:41:36;;;;;;;5.33;1.20;;;7.70;99.90;;;;;;4992639;28;20250;-70
2023/12/26 07:44:02;;;;;;;9.20;2.00;;;7.00;99.90;;;;;;5001053;28;20207;-70
2023/12/26 07:46:27;;;;;;;3.97;1.13;;;7.20;99.90;;;;;;5003254;28;20663;-70
2023/12/26 07:48:53;;;;;;;5.33;1.10;;;7.30;99.90;;;;;;5002145;28;20540;-70
2023/12/26 07:51:19;;;;;;;2.53;0.90;;;7.00;99.90;;;;;;5001640;28;20278;-70
2023/12/26 07:53:46;;;;;;;2.03;1.23;;;6.70;99.90;;;;;;5000015;28;20213;-70
2023/12/26 07:56:11;;;;;;;7.10;1.53;;;6.90;99.90;;;;;;4996076;28;20202;-70
2023/12/26 07:58:38;;;;;;;4.27;1.30;;;6.60;99.90;;;;;;4997524;28;20424;-70
2023/12/26 08:01:03;;;;;;;11.20;2.10;;;7.30;99.90;;;;;;4999558;28;20652;-66
2023/12/26 08:03:29;;;;;;;7.73;1.10;;;6.60;99.90;;;;;;4992101;28;20449;-66
2023/12/26 08:05:54;;;;;;;5.90;1.60;;;6.90;99.90;;;;;;4993642;28;20435;-70
2023/12/26 08:08:20;;;;;;;3.10;1.30;;;6.60;99.90;;;;;;5002737;28;20219;-70
2023/12/26 08:10:47;;;;;;;2.47;1.33;;;6.60;99.90;;;;;;4986005;28;20211;-66
2023/12/26 08:13:13;;;;;;;1.97;0.97;;;7.30;99.90;;;;;;4991871;28;20187;-66
2023/12/26 08:15:38;;;;;;;2.73;1.33;;;6.60;99.90;;;;;;4992272;28;20935;-66
2023/12/26 08:18:04;;;;;;;3.40;1.40;;;7.20;99.90;;;;;;4998017;28;20547;-66
2023/12/26 08:20:32;;;;;;;2.30;0.87;;;6.60;99.90;;;;;;4989124;28;20483;-66
2023/12/26 08:22:57;;;;;;;10.60;1.73;;;6.70;99.90;;;;;;4992218;28;20214;-66
2023/12/26 08:25:23;;;;;;;1.80;1.00;;;6.70;99.90;;;;;;4996628;28;20837;-70
2023/12/26 08:27:48;;;;;;;5.53;1.13;;;6.70;99.90;;;;;;5000506;28;20270;-70
2023/12/26 08:30:14;;;;;;;2.03;1.00;;;6.90;99.90;;;;;;4993076;28;20183;-66
2023/12/26 08:32:40;;;;;;;8.50;1.63;;;6.80;99.90;;;;;;4993032;28;20268;-66
2023/12/26 08:35:07;;;;;;;2.40;1.20;;;7.40;99.90;;;;;;4990480;28;20557;-70
2023/12/26 08:37:32;;;;;;;5.83;1.40;;;6.90;99.90;;;;;;4994379;28;20264;-70
2023/12/26 08:39:58;;;;;;;3.53;1.27;;;7.30;99.90;;;;;;4985291;28;20946;-70
2023/12/26 08:42:23;;;;;;;4.77;1.87;;;7.00;99.90;;;;;;4997031;28;20187;-70
2023/12/26 08:44:49;;;;;;;2.23;1.43;;;6.70;99.90;;;;;;4996826;28;20210;-69
2023/12/26 08:47:14;;;;;;;2.20;1.20;;;6.80;99.90;;;;;;4999445;28;20194;-70
2023/12/26 08:49:40;;;;;;;1.77;0.80;;;6.80;99.90;;;;;;4999149;28;20220;-70
2023/12/26 08:52:05;;;;;;;3.23;1.40;;;7.30;99.90;;;;;;5004629;28;20184;-70
2023/12/26 08:54:31;;;;;;;4.03;1.27;;;7.20;99.90;;;;;;5006713;28;20219;-70
2023/12/26 08:56:56;;;;;;;4.23;1.47;;;6.90;99.90;;;;;;4991592;28;20640;-70
2023/12/26 08:59:22;;;;;;;5.80;1.40;;;7.40;99.90;;;;;;4997920;28;20238;-70
2023/12/26 09:01:48;;;;;;;4.57;1.50;;;7.00;99.90;;;;;;5003568;28;20658;-70
2023/12/26 09:04:13;;;;;;;5.80;1.30;;;7.30;99.90;;;;;;4990762;28;20270;-70
2023/12/26 09:06:39;;;;;;;3.07;1.47;;;7.00;99.90;;;;;;4989951;28;20176;-70
2023/12/26 09:09:04;;;;;;;4.50;1.20;;;7.00;99.90;;;;;;4995716;28;20187;-70
2023/12/26 09:11:30;;;;;;;6.00;1.47;;;7.10;99.90;;;;;;4995348;28;20191;-66
2023/12/26 09:13:55;;;;;;;3.07;1.40;;;7.10;99.90;;;;;;5001899;28;20210;-66
2023/12/26 09:16:21;;;;;;;7.73;1.17;;;7.50;99.90;;;;;;4995048;28;20535;-65
2023/12/26 09:18:47;;;;;;;8.40;1.03;;;7.50;99.90;;;;;;4995361;28;20269;-66
2023/12/26 09:21:13;;;;;;;5.80;1.03;;;7.40;99.90;;;;;;4991830;28;20175;-70
2023/12/26 09:23:39;;;;;;;5.03;1.77;;;7.20;99.90;;;;;;4995387;28;20934;-70
2023/12/26 09:26:05;;;;;;;1.77;1.07;;;7.20;99.90;;;;;;4994471;28;20171;-70
2023/12/26 09:28:31;;;;;;;2.63;1.13;;;7.50;99.90;;;;;;4979358;28;20447;-70
2023/12/26 09:30:57;;;;;;;5.70;1.30;;;7.50;99.90;;;;;;5005789;28;20306;-67
2023/12/26 09:33:22;;;;;;;4.63;1.10;;;7.20;99.90;;;;;;4997320;28;20908;-66
2023/12/26 09:35:48;;;;;;;4.80;0.90;;;7.20;99.90;;;;;;4999595;28;20187;-69
2023/12/26 09:38:13;;;;;;;1.60;0.90;;;7.80;99.90;;;;;;4996047;28;20191;-67
2023/12/26 09:40:39;;;;;;;4.60;1.30;;;7.40;99.90;;;;;;5004383;28;20199;-67
2023/12/26 09:43:05;;;;;;;4.20;0.97;;;7.80;99.90;;;;;;5006928;28;20179;-65
2023/12/26 09:45:31;;;;;;;5.00;1.77;;;8.10;99.90;;;;;;4988305;28;20185;-69
2023/12/26 09:47:57;;;;;;;4.17;1.20;;;7.60;99.90;;;;;;4990705;28;20411;-70
2023/12/26 09:50:23;;;;;;;1.60;1.10;;;8.10;99.90;;;;;;5005416;28;20477;-65
2023/12/26 09:52:56;;;;;;;2.70;0.90;;;7.50;99.90;;;;;;4971665;28;20451;-64
2023/12/26 09:55:22;;;;;;;3.20;1.70;;;7.70;99.90;;;;;;5001284;28;20299;-67
2023/12/26 09:57:48;;;;;;;3.43;1.60;;;8.00;99.90;;;;;;4986253;28;20459;-70
2023/12/26 10:00:14;;;;;;;6.63;1.50;;;7.70;99.90;;;;;;5000396;28;20524;-74
2023/12/26 10:02:41;;;;;;;8.03;1.83;;;7.60;99.90;;;;;;5002685;28;20516;-70
2023/12/26 10:05:07;;;;;;;1.40;0.70;;;8.10;99.90;;;;;;5001076;28;20698;-70
2023/12/26 10:07:33;;;;;;;4.30;1.20;;;8.20;99.90;;;;;;4993811;28;20518;-71
2023/12/26 10:09:58;;;;;;;10.43;1.60;;;8.40;99.90;;;;;;5003986;28;20194;-72
2023/12/26 10:12:30;;;;;;;3.13;1.43;;;7.70;99.90;;;;;;4991952;28;20198;-71
2023/12/26 10:14:59;;;;;;;3.37;1.07;;;8.30;99.90;;;;;;4985105;28;20205;-67
2023/12/26 10:17:25;;;;;;;4.03;1.27;;;8.10;99.90;;;;;;4996452;28;20520;-67
2023/12/26 10:19:57;;;;;;;14.93;2.00;;;8.50;99.90;;;;;;4998257;28;20466;-67
2023/12/26 10:22:28;;;;;;;3.30;1.20;;;8.40;99.90;;;;;;4998539;28;20454;-68
2023/12/26 10:24:55;;;;;;;2.27;0.80;;;7.80;99.90;;;;;;4986400;28;20419;-67
2023/12/26 10:27:22;;;;;;;3.27;1.17;;;8.20;99.90;;;;;;5005365;28;20466;-67
2023/12/26 10:29:51;;;;;;;2.40;1.40;;;8.60;99.90;;;;;;4998628;28;20841;-71
2023/12/26 10:32:17;;;;;;;3.10;1.57;;;8.20;99.90;;;;;;5004035;28;20462;-71
2023/12/26 10:34:43;;;;;;;2.17;1.27;;;8.10;99.90;;;;;;4993375;28;20454;-71
2023/12/26 10:37:11;;;;;;;4.77;1.50;;;8.40;99.90;;;;;;5003150;28;20493;-67
2023/12/26 10:39:36;;;;;;;2.93;1.10;;;8.10;99.90;;;;;;5004504;28;20230;-67
2023/12/26 10:42:03;;;;;;;2.60;1.23;;;8.10;99.90;;;;;;4985130;28;20419;-67
2023/12/26 10:44:30;;;;;;;2.10;1.10;;;8.10;99.90;;;;;;4985191;28;20267;-67
2023/12/26 10:46:57;;;;;;;4.80;1.50;;;8.10;99.90;;;;;;4996286;28;20450;-67
2023/12/26 10:49:23;;;;;;;2.77;1.53;;;8.50;99.90;;;;;;4996638;28;20513;-67
2023/12/26 10:51:55;;;;;;;2.37;0.90;;;8.20;99.90;;;;;;4999305;28;20521;-68
2023/12/26 10:54:25;;;;;;;1.43;0.83;;;8.00;99.90;;;;;;4991849;28;21009;-66
2023/12/26 10:56:52;;;;;;;3.63;1.47;;;8.00;99.90;;;;;;4994076;28;20521;-71
2023/12/26 10:59:19;;;;;;;5.03;1.00;;;8.30;99.90;;;;;;4993338;28;20431;-71
2023/12/26 11:01:46;;;;;;;2.50;1.13;;;7.90;99.90;;;;;;5000912;28;20431;-71
2023/12/26 11:04:13;;;;;;;2.40;1.10;;;7.90;99.90;;;;;;4992034;28;20974;-72
2023/12/26 11:06:40;;;;;;;4.67;1.07;;;8.10;99.90;;;;;;4999068;28;20926;-71
2023/12/26 11:09:07;;;;;;;1.67;0.70;;;8.70;99.90;;;;;;4996917;28;20446;-71
2023/12/26 11:11:34;;;;;;;4.97;1.10;;;8.00;99.90;;;;;;4987869;28;20430;-71
2023/12/26 11:13:59;;;;;;;1.50;0.90;;;8.40;99.90;;;;;;5000100;28;20450;-71
2023/12/26 11:16:25;;;;;;;1.67;0.73;;;8.80;99.90;;;;;;4997612;28;20509;-71
2023/12/26 11:18:51;;;;;;;1.63;0.70;;;9.20;99.90;;;;;;4996498;28;20226;-71
2023/12/26 11:21:17;;;;;;;3.23;1.20;;;8.20;99.90;;;;;;4996579;28;20644;-71
2023/12/26 11:23:44;;;;;;;2.70;1.20;;;8.80;99.90;;;;;;4990167;28;20478;-70
2023/12/26 11:26:10;;;;;;;3.20;1.03;;;9.10;99.90;;;;;;5003088;28;20938;-67
2023/12/26 11:28:39;;;;;;;2.00;1.00;;;9.00;99.90;;;;;;5000707;28;20812;-67
2023/12/26 11:31:04;;;;;;;4.20;1.00;;;8.40;99.90;;;;;;4997035;28;20537;-71
2023/12/26 11:33:30;;;;;;;4.57;1.43;;;8.50;99.90;;;;;;4996042;28;20530;-71
2023/12/26 11:35:56;;;;;;;14.53;1.07;;;8.90;99.90;;;;;;5000132;28;20188;-67
2023/12/26 11:38:21;;;;;;;6.83;1.43;;;8.60;99.90;;;;;;5002210;28;20196;-67
2023/12/26 11:40:47;;;;;;;2.93;0.80;;;8.60;99.90;;;;;;4989102;28;20204;-71
2023/12/26 11:43:15;;;;;;;2.87;1.03;;;9.50;99.90;;;;;;4991279;28;20183;-71
2023/12/26 11:45:40;;;;;;;22.77;1.53;;;9.00;99.90;;;;;;4999680;28;20648;-71
2023/12/26 11:48:06;;;;;;;4.23;0.77;;;8.70;99.90;;;;;;5005103;28;20510;-71
2023/12/26 11:50:32;;;;;;;1.70;1.00;;;8.60;99.90;;;;;;4998361;28;20182;-67
2023/12/26 11:52:57;;;;;;;1.83;0.97;;;8.60;99.90;;;;;;4994830;28;20199;-67
2023/12/26 11:55:23;;;;;;;6.03;1.33;;;9.30;99.90;;;;;;4992209;28;20273;-71
2023/12/26 11:57:48;;;;;;;6.60;1.90;;;9.20;99.90;;;;;;4985046;28;20708;-71
2023/12/26 12:00:14;;;;;;;3.77;0.90;;;9.00;99.90;;;;;;4995882;28;20658;-71
2023/12/26 12:02:40;;;;;;;2.57;0.77;;;8.60;99.90;;;;;;4978924;28;20180;-71
2023/12/26 12:05:06;;;;;;;2.17;0.60;;;8.90;99.90;;;;;;4994268;28;20191;-71
2023/12/26 12:07:31;;;;;;;1.87;0.83;;;9.20;99.90;;;;;;4996501;28;20535;-71
2023/12/26 12:10:09;;;;;;;7.83;1.00;;;9.10;99.90;;;;;;4990476;28;20454;-71
2023/12/26 12:12:35;;;;;;;2.60;1.00;;;8.50;99.90;;;;;;4991461;28;20186;-71
2023/12/26 12:15:01;;;;;;;2.90;0.87;;;9.00;99.90;;;;;;5001984;28;20557;-71
2023/12/26 12:17:26;;;;;;;1.20;0.60;;;8.90;99.90;;;;;;4990118;28;20270;-71
2023/12/26 12:19:52;;;;;;;1.30;0.67;;;9.10;99.90;;;;;;5001474;28;20215;-71
2023/12/26 12:22:24;;;;;;;1.63;0.93;;;8.50;99.90;;;;;;5004108;28;20210;-72
2023/12/26 12:24:50;;;;;;;5.93;0.70;;;9.20;99.90;;;;;;5004065;28;20635;-71
2023/12/26 12:27:16;;;;;;;2.33;0.70;;;9.10;99.90;;;;;;5001264;28;20464;-71
2023/12/26 12:30:00;;;;;;;1.87;0.67;;;8.80;99.90;;;;;;4999576;28;20431;-71
2023/12/26 12:32:36;;;;;;;5.30;0.90;;;8.90;99.90;;;;;;4989846;28;20263;-71
2023/12/26 12:35:14;;;;;;;2.43;0.70;;;8.40;99.90;;;;;;4987751;28;20471;-68
2023/12/26 12:37:40;;;;;;;3.03;1.10;;;8.50;99.90;;;;;;4993913;28;20430;-67
2023/12/26 12:40:06;;;;;;;1.80;0.80;;;8.90;99.90;;;;;;4977884;28;20448;-71
2023/12/26 12:42:36;;;;;;;7.60;0.87;;;8.50;99.90;;;;;;4991150;28;20468;-71
2023/12/26 12:45:02;;;;;;;1.60;0.60;;;8.80;99.90;;;;;;4994326;28;20191;-67
2023/12/26 12:47:30;;;;;;;1.77;0.70;;;9.00;99.90;;;;;;5002102;28;20425;-67
2023/12/26 12:49:55;;;;;;;1.40;0.80;;;8.90;99.90;;;;;;4997975;28;20473;-70
2023/12/26 12:52:21;;;;;;;1.47;0.70;;;9.10;99.90;;;;;;5004321;28;20426;-70